sensor_id;sensor_type;location;lat;lon;timestamp;pressure;altitude;pressure_sealevel;temperature;humidity
22938;BME280;11634;42.734;23.298;2023-02-20T00:00:21;95639.75;;;10.55;100.00
22938;BME280;11634;42.734;23.298;2023-02-20T00:02:47;95651.22;;;10.52;100.00
22938;BME280;11634;42.734;23.298;2023-02-20T00:05:14;95667.47;;;10.45;100.00
22938;BME280;11634;42.734;23.298;2023-02-20T00:07:40;95630.88;;;10.26;100.00
22938;BME280;11634;42.734;23.298;2023-02-20T00:10:06;95645.88;;;10.23;100.00
22938;BME280;11634;42.734;23.298;2023-02-20T00:12:31;95650.63;;;10.29;100.00
22938;BME280;11634;42.734;23.298;2023-02-20T00:14:57;95603.41;;;9.91;100.00
22938;BME280;11634;42.734;23.298;2023-02-20T00:17:23;95651.47;;;10.18;100.00
22938;BME280;11634;42.734;23.298;2023-02-20T00:19:48;95633.63;;;10.14;100.00
22938;BME280;11634;42.734;23.298;2023-02-20T00:22:14;95641.53;;;10.23;100.00
22938;BME280;11634;42.734;23.298;2023-02-20T00:24:40;95645.44;;;10.18;100.00
22938;BME280;11634;42.734;23.298;2023-02-20T00:27:07;95658.06;;;10.22;100.00
22938;BME280;11634;42.734;23.298;2023-02-20T00:29:33;95655.72;;;10.19;100.00
22938;BME280;11634;42.734;23.298;2023-02-20T00:31:58;95653.94;;;10.20;100.00
22938;BME280;11634;42.734;23.298;2023-02-20T00:34:26;95631.84;;;10.14;100.00
22938;BME280;11634;42.734;23.298;2023-02-20T00:36:52;95635.50;;;10.12;100.00
22938;BME280;11634;42.734;23.298;2023-02-20T00:39:18;95600.13;;;10.00;100.00
22938;BME280;11634;42.734;23.298;2023-02-20T00:41:44;95627.03;;;10.10;100.00
22938;BME280;11634;42.734;23.298;2023-02-20T00:44:10;95631.63;;;10.06;100.00
22938;BME280;11634;42.734;23.298;2023-02-20T00:46:36;95653.50;;;10.15;100.00
22938;BME280;11634;42.734;23.298;2023-02-20T00:49:01;95603.91;;;9.85;100.00
22938;BME280;11634;42.734;23.298;2023-02-20T00:51:46;95663.41;;;10.21;100.00
22938;BME280;11634;42.734;23.298;2023-02-20T00:54:13;95670.97;;;10.13;100.00
22938;BME280;11634;42.734;23.298;2023-02-20T00:56:40;95633.19;;;9.87;100.00
22938;BME280;11634;42.734;23.298;2023-02-20T00:59:06;95683.28;;;10.11;100.00
22938;BME280;11634;42.734;23.298;2023-02-20T01:01:33;95683.88;;;10.03;100.00
22938;BME280;11634;42.734;23.298;2023-02-20T01:03:58;95660.84;;;9.88;100.00
22938;BME280;11634;42.734;23.298;2023-02-20T01:06:24;95670.75;;;9.94;100.00
22938;BME280;11634;42.734;23.298;2023-02-20T01:08:50;95675.84;;;9.95;100.00
22938;BME280;11634;42.734;23.298;2023-02-20T01:11:16;95660.34;;;9.94;100.00
22938;BME280;11634;42.734;23.298;2023-02-20T01:13:42;95621.03;;;9.55;100.00
22938;BME280;11634;42.734;23.298;2023-02-20T01:16:08;95678.78;;;9.91;100.00
22938;BME280;11634;42.734;23.298;2023-02-20T01:18:34;95687.53;;;9.90;100.00
22938;BME280;11634;42.734;23.298;2023-02-20T01:21:01;95650.22;;;9.69;100.00
22938;BME280;11634;42.734;23.298;2023-02-20T01:23:26;95705.84;;;9.88;100.00
22938;BME280;11634;42.734;23.298;2023-02-20T01:25:52;95708.91;;;9.93;100.00
22938;BME280;11634;42.734;23.298;2023-02-20T01:28:18;95689.78;;;9.73;100.00
22938;BME280;11634;42.734;23.298;2023-02-20T01:30:44;95696.53;;;9.97;100.00
22938;BME280;11634;42.734;23.298;2023-02-20T01:33:10;95687.78;;;9.98;100.00
22938;BME280;11634;42.734;23.298;2023-02-20T01:35:35;95711.91;;;10.11;100.00
22938;BME280;11634;42.734;23.298;2023-02-20T01:38:01;95706.44;;;10.14;100.00
22938;BME280;11634;42.734;23.298;2023-02-20T01:40:32;95653.16;;;9.86;100.00
22938;BME280;11634;42.734;23.298;2023-02-20T01:43:00;95694.25;;;10.14;100.00
22938;BME280;11634;42.734;23.298;2023-02-20T01:45:30;95704.19;;;10.20;100.00
22938;BME280;11634;42.734;23.298;2023-02-20T01:47:58;95717.66;;;10.25;100.00
22938;BME280;11634;42.734;23.298;2023-02-20T01:50:34;95705.97;;;10.20;100.00
22938;BME280;11634;42.734;23.298;2023-02-20T01:53:06;95719.66;;;10.33;100.00
22938;BME280;11634;42.734;23.298;2023-02-20T01:55:39;95713.50;;;10.34;100.00
22938;BME280;11634;42.734;23.298;2023-02-20T01:58:15;95746.25;;;10.36;100.00
22938;BME280;11634;42.734;23.298;2023-02-20T02:00:42;95735.16;;;10.34;100.00
22938;BME280;11634;42.734;23.298;2023-02-20T02:03:10;95720.13;;;10.27;100.00
22938;BME280;11634;42.734;23.298;2023-02-20T02:05:39;95697.47;;;10.07;100.00
22938;BME280;11634;42.734;23.298;2023-02-20T02:08:08;95698.31;;;9.96;100.00
22938;BME280;11634;42.734;23.298;2023-02-20T02:10:48;95729.03;;;10.02;100.00
22938;BME280;11634;42.734;23.298;2023-02-20T02:13:17;95720.06;;;9.95;100.00
22938;BME280;11634;42.734;23.298;2023-02-20T02:15:43;95711.28;;;9.75;100.00
22938;BME280;11634;42.734;23.298;2023-02-20T02:30:17;95725.53;;;9.26;100.00
22938;BME280;11634;42.734;23.298;2023-02-20T02:38:29;95730.63;;;9.04;100.00
22938;BME280;11634;42.734;23.298;2023-02-20T02:41:07;95725.63;;;8.90;100.00
22938;BME280;11634;42.734;23.298;2023-02-20T02:43:54;95736.84;;;8.79;100.00
22938;BME280;11634;42.734;23.298;2023-02-20T02:49:16;95736.09;;;8.77;100.00
22938;BME280;11634;42.734;23.298;2023-02-20T02:51:45;95728.03;;;8.70;100.00
22938;BME280;11634;42.734;23.298;2023-02-20T02:54:15;95722.97;;;8.68;100.00
22938;BME280;11634;42.734;23.298;2023-02-20T02:56:43;95735.47;;;8.74;100.00
22938;BME280;11634;42.734;23.298;2023-02-20T02:59:13;95744.34;;;8.72;100.00
22938;BME280;11634;42.734;23.298;2023-02-20T03:01:44;95756.47;;;8.71;100.00
22938;BME280;11634;42.734;23.298;2023-02-20T03:04:12;95749.94;;;8.66;100.00
22938;BME280;11634;42.734;23.298;2023-02-20T03:06:43;95743.91;;;8.54;100.00
22938;BME280;11634;42.734;23.298;2023-02-20T03:09:17;95759.00;;;8.60;100.00
22938;BME280;11634;42.734;23.298;2023-02-20T03:11:44;95763.09;;;8.52;100.00
22938;BME280;11634;42.734;23.298;2023-02-20T03:14:15;95769.84;;;8.54;100.00
22938;BME280;11634;42.734;23.298;2023-02-20T03:17:23;95775.03;;;8.54;100.00
22938;BME280;11634;42.734;23.298;2023-02-20T03:19:54;95770.38;;;8.47;100.00
22938;BME280;11634;42.734;23.298;2023-02-20T03:22:29;95764.59;;;8.43;100.00
22938;BME280;11634;42.734;23.298;2023-02-20T03:25:01;95762.28;;;8.39;100.00
22938;BME280;11634;42.734;23.298;2023-02-20T03:27:41;95779.75;;;8.60;100.00
22938;BME280;11634;42.734;23.298;2023-02-20T03:33:16;95804.72;;;8.73;100.00
22938;BME280;11634;42.734;23.298;2023-02-20T03:36:05;95797.06;;;8.72;100.00
22938;BME280;11634;42.734;23.298;2023-02-20T03:38:55;95792.09;;;8.69;100.00
22938;BME280;11634;42.734;23.298;2023-02-20T03:41:42;95793.94;;;8.67;100.00
22938;BME280;11634;42.734;23.298;2023-02-20T03:44:31;95774.22;;;8.41;100.00
22938;BME280;11634;42.734;23.298;2023-02-20T03:47:00;95807.19;;;8.52;100.00
22938;BME280;11634;42.734;23.298;2023-02-20T03:49:34;95818.78;;;8.59;100.00
22938;BME280;11634;42.734;23.298;2023-02-20T03:52:03;95812.50;;;8.50;100.00
22938;BME280;11634;42.734;23.298;2023-02-20T03:54:34;95785.91;;;8.23;100.00
22938;BME280;11634;42.734;23.298;2023-02-20T03:57:14;95819.53;;;8.61;100.00
22938;BME280;11634;42.734;23.298;2023-02-20T03:59:51;95817.28;;;8.67;100.00
22938;BME280;11634;42.734;23.298;2023-02-20T04:02:30;95805.88;;;8.70;100.00
22938;BME280;11634;42.734;23.298;2023-02-20T04:05:01;95812.56;;;8.61;100.00
22938;BME280;11634;42.734;23.298;2023-02-20T04:07:48;95818.22;;;8.78;100.00
22938;BME280;11634;42.734;23.298;2023-02-20T04:10:22;95809.78;;;8.75;100.00
22938;BME280;11634;42.734;23.298;2023-02-20T04:12:50;95816.25;;;8.70;100.00
22938;BME280;11634;42.734;23.298;2023-02-20T04:15:18;95801.06;;;8.53;100.00
22938;BME280;11634;42.734;23.298;2023-02-20T04:17:54;95835.47;;;8.67;100.00
22938;BME280;11634;42.734;23.298;2023-02-20T04:20:21;95808.59;;;8.68;100.00
22938;BME280;11634;42.734;23.298;2023-02-20T04:23:21;95796.88;;;8.63;100.00
22938;BME280;11634;42.734;23.298;2023-02-20T04:26:01;95830.09;;;8.58;100.00
22938;BME280;11634;42.734;23.298;2023-02-20T04:28:31;95831.22;;;8.66;100.00
22938;BME280;11634;42.734;23.298;2023-02-20T04:31:01;95836.59;;;8.63;100.00
22938;BME280;11634;42.734;23.298;2023-02-20T04:33:31;95838.78;;;8.69;100.00
22938;BME280;11634;42.734;23.298;2023-02-20T04:36:20;95832.75;;;8.69;100.00
22938;BME280;11634;42.734;23.298;2023-02-20T04:38:52;95828.56;;;8.55;100.00
22938;BME280;11634;42.734;23.298;2023-02-20T04:41:23;95824.31;;;8.54;100.00
22938;BME280;11634;42.734;23.298;2023-02-20T04:43:48;95837.50;;;8.51;100.00
22938;BME280;11634;42.734;23.298;2023-02-20T04:46:16;95819.88;;;8.44;100.00
22938;BME280;11634;42.734;23.298;2023-02-20T04:48:44;95834.91;;;8.51;100.00
22938;BME280;11634;42.734;23.298;2023-02-20T04:51:11;95824.97;;;8.33;100.00
22938;BME280;11634;42.734;23.298;2023-02-20T04:53:37;95826.97;;;8.29;100.00
22938;BME280;11634;42.734;23.298;2023-02-20T04:56:10;95837.41;;;8.28;100.00
22938;BME280;11634;42.734;23.298;2023-02-20T04:58:39;95833.31;;;8.25;100.00
22938;BME280;11634;42.734;23.298;2023-02-20T05:01:15;95828.41;;;8.21;100.00
22938;BME280;11634;42.734;23.298;2023-02-20T05:03:40;95843.03;;;8.22;100.00
22938;BME280;11634;42.734;23.298;2023-02-20T05:06:06;95839.31;;;8.14;100.00
22938;BME280;11634;42.734;23.298;2023-02-20T05:08:31;95862.22;;;8.19;100.00
22938;BME280;11634;42.734;23.298;2023-02-20T05:10:57;95876.44;;;8.14;100.00
22938;BME280;11634;42.734;23.298;2023-02-20T05:13:23;95868.84;;;8.11;100.00
22938;BME280;11634;42.734;23.298;2023-02-20T05:15:48;95870.63;;;8.11;100.00
22938;BME280;11634;42.734;23.298;2023-02-20T05:18:23;95861.28;;;7.96;100.00
22938;BME280;11634;42.734;23.298;2023-02-20T05:20:49;95862.22;;;7.95;100.00
22938;BME280;11634;42.734;23.298;2023-02-20T05:23:33;95875.59;;;7.89;100.00
22938;BME280;11634;42.734;23.298;2023-02-20T05:26:00;95879.00;;;8.02;100.00
22938;BME280;11634;42.734;23.298;2023-02-20T05:28:25;95887.69;;;8.01;100.00
22938;BME280;11634;42.734;23.298;2023-02-20T05:30:51;95881.28;;;7.94;100.00
22938;BME280;11634;42.734;23.298;2023-02-20T05:33:17;95896.50;;;7.98;100.00
22938;BME280;11634;42.734;23.298;2023-02-20T05:35:42;95901.41;;;8.03;100.00
22938;BME280;11634;42.734;23.298;2023-02-20T05:38:08;95927.81;;;8.08;100.00
22938;BME280;11634;42.734;23.298;2023-02-20T05:40:34;95907.28;;;8.05;100.00
22938;BME280;11634;42.734;23.298;2023-02-20T05:42:59;95924.00;;;8.13;100.00
22938;BME280;11634;42.734;23.298;2023-02-20T05:45:25;95916.31;;;8.12;100.00
22938;BME280;11634;42.734;23.298;2023-02-20T05:47:50;95925.28;;;8.20;100.00
22938;BME280;11634;42.734;23.298;2023-02-20T05:50:16;95918.34;;;8.20;100.00
22938;BME280;11634;42.734;23.298;2023-02-20T05:52:42;95918.66;;;8.28;100.00
22938;BME280;11634;42.734;23.298;2023-02-20T05:55:09;95930.97;;;8.25;100.00
22938;BME280;11634;42.734;23.298;2023-02-20T05:57:34;95944.38;;;8.31;100.00
22938;BME280;11634;42.734;23.298;2023-02-20T06:00:00;95922.28;;;8.26;100.00
22938;BME280;11634;42.734;23.298;2023-02-20T06:02:25;95935.66;;;8.32;100.00
22938;BME280;11634;42.734;23.298;2023-02-20T06:04:51;95939.81;;;8.35;100.00
22938;BME280;11634;42.734;23.298;2023-02-20T06:07:17;95932.84;;;8.35;100.00
22938;BME280;11634;42.734;23.298;2023-02-20T06:09:43;95944.47;;;8.42;100.00
22938;BME280;11634;42.734;23.298;2023-02-20T06:12:09;95967.69;;;8.56;100.00
22938;BME280;11634;42.734;23.298;2023-02-20T06:14:35;95959.28;;;8.65;100.00
22938;BME280;11634;42.734;23.298;2023-02-20T06:17:01;95962.41;;;8.70;100.00
22938;BME280;11634;42.734;23.298;2023-02-20T06:19:27;95943.59;;;8.79;100.00
22938;BME280;11634;42.734;23.298;2023-02-20T06:21:53;95953.00;;;8.92;100.00
22938;BME280;11634;42.734;23.298;2023-02-20T06:24:20;95960.75;;;9.05;100.00
22938;BME280;11634;42.734;23.298;2023-02-20T06:26:45;95951.81;;;9.09;100.00
22938;BME280;11634;42.734;23.298;2023-02-20T06:29:13;95968.13;;;9.11;100.00
22938;BME280;11634;42.734;23.298;2023-02-20T06:31:39;95971.66;;;9.10;100.00
22938;BME280;11634;42.734;23.298;2023-02-20T06:34:06;95976.63;;;9.13;100.00
22938;BME280;11634;42.734;23.298;2023-02-20T06:36:35;95962.72;;;9.14;100.00
22938;BME280;11634;42.734;23.298;2023-02-20T06:39:02;95963.88;;;9.10;100.00
22938;BME280;11634;42.734;23.298;2023-02-20T06:41:28;95970.91;;;9.08;100.00
22938;BME280;11634;42.734;23.298;2023-02-20T06:43:54;95977.19;;;9.05;100.00
22938;BME280;11634;42.734;23.298;2023-02-20T06:46:19;95981.81;;;9.13;98.81
22938;BME280;11634;42.734;23.298;2023-02-20T06:48:50;95982.47;;;9.04;98.11
22938;BME280;11634;42.734;23.298;2023-02-20T06:51:17;95952.59;;;8.86;100.00
22938;BME280;11634;42.734;23.298;2023-02-20T06:53:43;95933.19;;;8.79;100.00
22938;BME280;11634;42.734;23.298;2023-02-20T06:56:09;95994.66;;;8.91;100.00
22938;BME280;11634;42.734;23.298;2023-02-20T06:58:36;96005.97;;;8.77;100.00
22938;BME280;11634;42.734;23.298;2023-02-20T07:01:01;95993.94;;;8.76;100.00
22938;BME280;11634;42.734;23.298;2023-02-20T07:03:27;95999.09;;;8.89;98.59
22938;BME280;11634;42.734;23.298;2023-02-20T07:05:52;96001.50;;;8.92;96.40
22938;BME280;11634;42.734;23.298;2023-02-20T07:08:19;95983.25;;;8.81;92.48
22938;BME280;11634;42.734;23.298;2023-02-20T07:10:45;95957.81;;;8.73;90.94
22938;BME280;11634;42.734;23.298;2023-02-20T07:13:10;95995.34;;;8.93;90.60
22938;BME280;11634;42.734;23.298;2023-02-20T07:15:36;96011.88;;;8.92;90.14
22938;BME280;11634;42.734;23.298;2023-02-20T07:18:02;96009.06;;;9.07;87.76
22938;BME280;11634;42.734;23.298;2023-02-20T07:20:27;95999.56;;;9.19;86.22
22938;BME280;11634;42.734;23.298;2023-02-20T07:22:53;95981.84;;;9.36;84.42
22938;BME280;11634;42.734;23.298;2023-02-20T07:25:19;96013.69;;;9.27;82.53
22938;BME280;11634;42.734;23.298;2023-02-20T07:27:45;96014.75;;;9.12;80.39
22938;BME280;11634;42.734;23.298;2023-02-20T07:30:11;96014.56;;;9.03;82.14
22938;BME280;11634;42.734;23.298;2023-02-20T07:32:36;95989.09;;;9.08;79.99
22938;BME280;11634;42.734;23.298;2023-02-20T07:35:04;96008.53;;;9.02;80.36
22938;BME280;11634;42.734;23.298;2023-02-20T07:37:31;95940.47;;;8.74;79.61
22938;BME280;11634;42.734;23.298;2023-02-20T07:39:57;95994.31;;;8.95;80.30
22938;BME280;11634;42.734;23.298;2023-02-20T07:42:22;95963.63;;;8.77;79.80
22938;BME280;11634;42.734;23.298;2023-02-20T07:44:50;95930.19;;;8.85;79.66
22938;BME280;11634;42.734;23.298;2023-02-20T07:47:16;95983.06;;;8.72;78.78
22938;BME280;11634;42.734;23.298;2023-02-20T07:49:42;96007.66;;;8.78;78.50
22938;BME280;11634;42.734;23.298;2023-02-20T07:52:08;96003.91;;;8.82;79.06
22938;BME280;11634;42.734;23.298;2023-02-20T07:54:34;95998.69;;;8.95;76.45
22938;BME280;11634;42.734;23.298;2023-02-20T07:56:59;95998.88;;;9.04;76.61
22938;BME280;11634;42.734;23.298;2023-02-20T07:59:25;96012.47;;;9.08;75.82
22938;BME280;11634;42.734;23.298;2023-02-20T08:01:50;95997.84;;;9.07;72.87
22938;BME280;11634;42.734;23.298;2023-02-20T08:04:16;96018.91;;;9.15;73.00
22938;BME280;11634;42.734;23.298;2023-02-20T08:06:43;95948.22;;;8.99;69.54
22938;BME280;11634;42.734;23.298;2023-02-20T08:09:08;96004.59;;;9.91;67.59
22938;BME280;11634;42.734;23.298;2023-02-20T08:11:36;95998.63;;;10.02;65.28
22938;BME280;11634;42.734;23.298;2023-02-20T08:14:03;96003.22;;;9.52;66.59
22938;BME280;11634;42.734;23.298;2023-02-20T08:16:29;96018.81;;;9.52;67.45
22938;BME280;11634;42.734;23.298;2023-02-20T08:18:55;96031.97;;;9.61;66.73
22938;BME280;11634;42.734;23.298;2023-02-20T08:21:21;95976.13;;;9.43;66.25
22938;BME280;11634;42.734;23.298;2023-02-20T08:23:47;96005.75;;;9.64;65.60
22938;BME280;11634;42.734;23.298;2023-02-20T08:26:13;96019.09;;;9.60;66.26
22938;BME280;11634;42.734;23.298;2023-02-20T08:28:38;96008.56;;;9.84;65.69
22938;BME280;11634;42.734;23.298;2023-02-20T08:31:04;96016.97;;;10.00;65.26
22938;BME280;11634;42.734;23.298;2023-02-20T08:33:30;96003.66;;;9.69;64.73
22938;BME280;11634;42.734;23.298;2023-02-20T08:35:56;96025.66;;;9.76;64.01
22938;BME280;11634;42.734;23.298;2023-02-20T08:38:28;96010.94;;;9.87;64.07
22938;BME280;11634;42.734;23.298;2023-02-20T08:41:13;96022.16;;;10.00;63.20
22938;BME280;11634;42.734;23.298;2023-02-20T08:43:39;96030.19;;;9.97;63.31
22938;BME280;11634;42.734;23.298;2023-02-20T08:46:06;96016.63;;;10.05;63.35
22938;BME280;11634;42.734;23.298;2023-02-20T08:48:34;96006.31;;;10.37;62.58
22938;BME280;11634;42.734;23.298;2023-02-20T08:51:00;96029.28;;;10.43;61.96
22938;BME280;11634;42.734;23.298;2023-02-20T08:53:25;95990.56;;;10.39;60.35
22938;BME280;11634;42.734;23.298;2023-02-20T08:55:51;95992.47;;;10.37;61.35
22938;BME280;11634;42.734;23.298;2023-02-20T08:58:19;95997.03;;;10.23;60.78
22938;BME280;11634;42.734;23.298;2023-02-20T09:00:44;96015.75;;;10.28;60.77
22938;BME280;11634;42.734;23.298;2023-02-20T09:03:10;95964.50;;;10.51;61.50
22938;BME280;11634;42.734;23.298;2023-02-20T09:05:36;95965.66;;;10.47;60.08
22938;BME280;11634;42.734;23.298;2023-02-20T09:08:02;95979.41;;;10.71;60.05
22938;BME280;11634;42.734;23.298;2023-02-20T09:10:28;95950.06;;;10.58;58.91
22938;BME280;11634;42.734;23.298;2023-02-20T09:12:53;95981.53;;;10.55;58.47
22938;BME280;11634;42.734;23.298;2023-02-20T09:15:19;95976.50;;;10.31;59.04
22938;BME280;11634;42.734;23.298;2023-02-20T09:17:48;95972.38;;;10.39;58.14
22938;BME280;11634;42.734;23.298;2023-02-20T09:20:16;95981.16;;;10.60;58.41
22938;BME280;11634;42.734;23.298;2023-02-20T09:22:46;95984.00;;;10.57;58.88
22938;BME280;11634;42.734;23.298;2023-02-20T09:25:12;95961.91;;;10.73;58.72
22938;BME280;11634;42.734;23.298;2023-02-20T09:27:38;95976.41;;;10.54;58.47
22938;BME280;11634;42.734;23.298;2023-02-20T09:30:05;95973.81;;;10.54;58.79
22938;BME280;11634;42.734;23.298;2023-02-20T09:32:31;95979.75;;;10.78;58.82
22938;BME280;11634;42.734;23.298;2023-02-20T09:34:56;95968.41;;;10.79;58.84
22938;BME280;11634;42.734;23.298;2023-02-20T09:37:24;95959.53;;;10.92;58.86
22938;BME280;11634;42.734;23.298;2023-02-20T09:39:50;95994.78;;;10.74;58.93
22938;BME280;11634;42.734;23.298;2023-02-20T09:45:09;95964.63;;;11.04;57.78
22938;BME280;11634;42.734;23.298;2023-02-20T09:51:02;95972.66;;;11.12;57.74
22938;BME280;11634;42.734;23.298;2023-02-20T09:53:30;95975.38;;;10.89;57.48
22938;BME280;11634;42.734;23.298;2023-02-20T09:55:58;95980.13;;;10.95;57.88
22938;BME280;11634;42.734;23.298;2023-02-20T09:58:44;95982.13;;;11.02;56.65
22938;BME280;11634;42.734;23.298;2023-02-20T10:01:15;95971.72;;;10.81;56.96
22938;BME280;11634;42.734;23.298;2023-02-20T10:03:58;96001.56;;;11.20;56.98
22938;BME280;11634;42.734;23.298;2023-02-20T10:06:31;95989.69;;;11.38;56.54
22938;BME280;11634;42.734;23.298;2023-02-20T10:08:58;95972.25;;;11.39;55.42
22938;BME280;11634;42.734;23.298;2023-02-20T10:18:02;95962.88;;;11.58;54.84
22938;BME280;11634;42.734;23.298;2023-02-20T10:20:57;95959.97;;;11.08;55.83
22938;BME280;11634;42.734;23.298;2023-02-20T10:23:49;95980.00;;;11.18;55.38
22938;BME280;11634;42.734;23.298;2023-02-20T10:26:21;95969.19;;;11.34;54.73
22938;BME280;11634;42.734;23.298;2023-02-20T10:28:50;95954.97;;;11.38;54.71
22938;BME280;11634;42.734;23.298;2023-02-20T10:31:31;95945.94;;;11.42;54.02
22938;BME280;11634;42.734;23.298;2023-02-20T10:34:26;95944.53;;;11.80;52.73
22938;BME280;11634;42.734;23.298;2023-02-20T10:37:05;95945.69;;;11.66;53.28
22938;BME280;11634;42.734;23.298;2023-02-20T10:39:33;95917.34;;;11.62;53.62
22938;BME280;11634;42.734;23.298;2023-02-20T10:42:09;95924.69;;;11.68;52.81
22938;BME280;11634;42.734;23.298;2023-02-20T10:52:54;95930.56;;;11.81;53.58
22938;BME280;11634;42.734;23.298;2023-02-20T10:55:27;95925.56;;;11.89;53.16
22938;BME280;11634;42.734;23.298;2023-02-20T10:58:06;95924.34;;;11.93;52.56
22938;BME280;11634;42.734;23.298;2023-02-20T11:00:45;95928.75;;;11.92;53.18
22938;BME280;11634;42.734;23.298;2023-02-20T11:03:43;95937.34;;;12.03;53.09
22938;BME280;11634;42.734;23.298;2023-02-20T11:06:14;95926.78;;;12.05;53.35
22938;BME280;11634;42.734;23.298;2023-02-20T11:08:41;95930.66;;;12.31;52.97
22938;BME280;11634;42.734;23.298;2023-02-20T11:11:24;95935.53;;;12.04;53.63
22938;BME280;11634;42.734;23.298;2023-02-20T11:13:51;95926.09;;;12.03;54.09
22938;BME280;11634;42.734;23.298;2023-02-20T11:16:22;95913.78;;;12.14;53.56
22938;BME280;11634;42.734;23.298;2023-02-20T11:18:53;95933.41;;;12.09;53.20
22938;BME280;11634;42.734;23.298;2023-02-20T11:21:38;95938.22;;;12.34;53.32
22938;BME280;11634;42.734;23.298;2023-02-20T11:24:24;95925.75;;;12.37;52.99
22938;BME280;11634;42.734;23.298;2023-02-20T11:26:55;95922.75;;;12.42;53.04
22938;BME280;11634;42.734;23.298;2023-02-20T11:29:22;95944.75;;;12.89;52.23
22938;BME280;11634;42.734;23.298;2023-02-20T11:31:48;95913.59;;;12.77;51.14
22938;BME280;11634;42.734;23.298;2023-02-20T11:34:20;95940.94;;;12.53;51.13
22938;BME280;11634;42.734;23.298;2023-02-20T11:36:54;95920.44;;;12.68;51.42
22938;BME280;11634;42.734;23.298;2023-02-20T11:39:26;95916.63;;;12.82;51.18
22938;BME280;11634;42.734;23.298;2023-02-20T11:42:19;95929.59;;;12.63;50.91
22938;BME280;11634;42.734;23.298;2023-02-20T11:44:45;95934.66;;;12.55;50.84
22938;BME280;11634;42.734;23.298;2023-02-20T11:48:07;95912.84;;;12.36;51.34
22938;BME280;11634;42.734;23.298;2023-02-20T11:50:42;95903.16;;;12.27;51.42
22938;BME280;11634;42.734;23.298;2023-02-20T11:53:27;95916.97;;;12.38;51.88
22938;BME280;11634;42.734;23.298;2023-02-20T11:56:16;95913.25;;;12.41;51.11
22938;BME280;11634;42.734;23.298;2023-02-20T12:01:53;95907.72;;;12.55;50.91
22938;BME280;11634;42.734;23.298;2023-02-20T12:04:22;95917.25;;;12.45;50.95
22938;BME280;11634;42.734;23.298;2023-02-20T12:06:48;95833.84;;;12.13;50.95
22938;BME280;11634;42.734;23.298;2023-02-20T12:09:20;95901.06;;;12.71;50.03
22938;BME280;11634;42.734;23.298;2023-02-20T12:11:49;95905.06;;;12.75;49.85
22938;BME280;11634;42.734;23.298;2023-02-20T12:14:17;95897.53;;;12.81;49.96
22938;BME280;11634;42.734;23.298;2023-02-20T12:17:45;95890.56;;;12.61;50.00
22938;BME280;11634;42.734;23.298;2023-02-20T12:20:00;95898.00;;;12.66;49.76
22938;BME280;11634;42.734;23.298;2023-02-20T12:39:21;95877.50;;;12.61;49.14
22938;BME280;11634;42.734;23.298;2023-02-20T12:42:08;95927.88;;;12.73;48.98
22938;BME280;11634;42.734;23.298;2023-02-20T12:45:02;95912.59;;;12.68;49.16
22938;BME280;11634;42.734;23.298;2023-02-20T12:47:36;95882.16;;;12.58;49.45
22938;BME280;11634;42.734;23.298;2023-02-20T13:00:57;95913.16;;;12.92;49.37
22938;BME280;11634;42.734;23.298;2023-02-20T13:05:54;95902.06;;;12.79;49.72
22938;BME280;11634;42.734;23.298;2023-02-20T13:08:35;95915.59;;;12.84;49.63
22938;BME280;11634;42.734;23.298;2023-02-20T13:11:13;95913.31;;;12.80;50.22
22938;BME280;11634;42.734;23.298;2023-02-20T13:19:22;95897.06;;;12.97;50.23
22938;BME280;11634;42.734;23.298;2023-02-20T13:21:58;95906.13;;;12.93;49.99
22938;BME280;11634;42.734;23.298;2023-02-20T13:24:32;95895.22;;;12.88;50.80
22938;BME280;11634;42.734;23.298;2023-02-20T13:27:02;95925.22;;;12.93;50.19
22938;BME280;11634;42.734;23.298;2023-02-20T13:29:36;95923.75;;;12.80;50.22
22938;BME280;11634;42.734;23.298;2023-02-20T13:32:21;95893.88;;;12.93;50.11
22938;BME280;11634;42.734;23.298;2023-02-20T13:34:49;95914.78;;;12.93;50.36
22938;BME280;11634;42.734;23.298;2023-02-20T13:45:43;95913.63;;;12.56;51.70
22938;BME280;11634;42.734;23.298;2023-02-20T13:54:13;95927.97;;;12.42;51.66
22938;BME280;11634;42.734;23.298;2023-02-20T13:56:52;95926.69;;;12.56;51.27
22938;BME280;11634;42.734;23.298;2023-02-20T13:59:21;95927.31;;;12.69;51.78
22938;BME280;11634;42.734;23.298;2023-02-20T14:04:37;95937.13;;;12.56;51.62
22938;BME280;11634;42.734;23.298;2023-02-20T14:07:02;95934.75;;;12.74;51.80
22938;BME280;11634;42.734;23.298;2023-02-20T14:09:29;95928.94;;;12.61;51.61
22938;BME280;11634;42.734;23.298;2023-02-20T14:12:06;95929.91;;;12.40;51.80
22938;BME280;11634;42.734;23.298;2023-02-20T14:14:36;95929.00;;;12.30;52.35
22938;BME280;11634;42.734;23.298;2023-02-20T14:17:14;95935.88;;;12.10;52.43
22938;BME280;11634;42.734;23.298;2023-02-20T14:19:43;95935.47;;;12.15;52.99
22938;BME280;11634;42.734;23.298;2023-02-20T14:24:45;95942.09;;;12.39;52.78
22938;BME280;11634;42.734;23.298;2023-02-20T14:27:25;95936.38;;;12.45;53.15
22938;BME280;11634;42.734;23.298;2023-02-20T14:30:14;95939.47;;;12.59;52.72
22938;BME280;11634;42.734;23.298;2023-02-20T14:32:54;95937.72;;;12.40;53.76
22938;BME280;11634;42.734;23.298;2023-02-20T14:40:52;95942.69;;;12.02;54.44
22938;BME280;11634;42.734;23.298;2023-02-20T14:43:22;95944.09;;;12.06;54.59
22938;BME280;11634;42.734;23.298;2023-02-20T14:46:00;95960.22;;;12.00;54.16
22938;BME280;11634;42.734;23.298;2023-02-20T14:48:29;95964.03;;;12.07;54.75
22938;BME280;11634;42.734;23.298;2023-02-20T14:51:13;95962.69;;;12.12;54.56
22938;BME280;11634;42.734;23.298;2023-02-20T14:53:40;95956.41;;;12.04;54.30
22938;BME280;11634;42.734;23.298;2023-02-20T14:56:14;95962.22;;;12.07;54.93